This is the latest recevied weather packets stored in our database for station/object TULLARI. If no packets are shown the sender has not sent any weather packets the latest 1 day(s).
| Time | Temp. | Humidity | Pressure | Rain* | Wind** | Luminosity | Snow |
|---|---|---|---|---|---|---|---|
| 1836274178 | 16.11° C | 99% | 1008.7 hPa | - | 11.18 m/s, 221° | - | - |
| 1778036847 | 5° C | 80% | 1011.5 hPa | - | 4.02 m/s, 302° | - | - |
| 1778035647 | 4.44° C | 83% | 1011.3 hPa | - | 4.02 m/s, 289° | - | - |
| 1778034447 | 5° C | 83% | 1011.2 hPa | - | 4.92 m/s, 272° | - | - |
| 1778033246 | 5° C | 85% | 1011.1 hPa | - | 4.92 m/s, 271° | - | - |
| 1778032046 | 5° C | 85% | 1010.9 hPa | - | 4.92 m/s, 270° | - | - |
| 1778030846 | 5° C | 87% | 1010.6 hPa | - | 3.58 m/s, 278° | - | - |
| 1778029647 | 5° C | 87% | 1010.4 hPa | - | 4.02 m/s, 284° | - | - |
| 1778028446 | 5° C | 89% | 1010.3 hPa | - | 4.02 m/s, 275° | - | - |
| 1778027247 | 5° C | 90% | 1010.2 hPa | - | 4.47 m/s, 280° | - | - |
| 1778026047 | 5° C | 89% | 1010.1 hPa | - | 4.47 m/s, 289° | - | - |
| 1778024847 | 5° C | 88% | 1010 hPa | - | 4.02 m/s, 295° | - | - |
| 1778023647 | 4.44° C | 90% | 1009.9 hPa | - | 3.58 m/s, 284° | - | - |
| 1778022447 | 4.44° C | 91% | 1009.8 hPa | - | 3.58 m/s, 284° | - | - |
| 1778021246 | 4.44° C | 90% | 1009.7 hPa | - | 4.47 m/s, 286° | - | - |
| 1778020046 | 5° C | 91% | 1009.7 hPa | - | 4.47 m/s, 283° | - | - |
| 1778018846 | 5° C | 90% | 1009.7 hPa | - | 5.36 m/s, 284° | - | - |
| 1778017647 | 5° C | 90% | 1009.6 hPa | - | 4.92 m/s, 286° | - | - |
| 1778016447 | 5° C | 89% | 1009.5 hPa | - | 6.26 m/s, 284° | - | - |
| 1778015245 | 5° C | 87% | 1009.4 hPa | - | 6.71 m/s, 285° | - | - |
| 1778014046 | 5° C | 79% | 1009.3 hPa | - | 6.26 m/s, 284° | - | - |
| 1778012847 | 5° C | 77% | 1009.2 hPa | - | 5.81 m/s, 280° | - | - |
| 1778011645 | 5° C | 75% | 1009 hPa | - | 6.26 m/s, 280° | - | - |
| 1778010445 | 5.56° C | 73% | 1008.9 hPa | - | 6.71 m/s, 274° | - | - |
| 1778009245 | 5.56° C | 75% | 1008.8 hPa | - | 5.81 m/s, 279° | - | - |
* Rain since midnight (hover to see other rain measurements)
** Current wind speed in m/s (hover to see current wind gust speed)